createdAt,value
2018-09-24T00:00:02.511Z,87.36
2018-09-24T00:02:31.170Z,87.36
2018-09-24T00:04:59.841Z,87.53
2018-09-24T00:07:28.524Z,87.83
2018-09-24T00:09:57.228Z,88.23
2018-09-24T00:12:25.948Z,88.29
2018-09-24T00:14:54.617Z,88.58
2018-09-24T00:17:23.302Z,89.21
2018-09-24T00:19:52.001Z,89.24
2018-09-24T00:22:20.693Z,89.64
2018-09-24T00:24:49.391Z,89.26
2018-09-24T00:27:18.054Z,89.72
2018-09-24T00:29:46.740Z,89.87
2018-09-24T00:32:15.387Z,89.83
2018-09-24T00:34:44.114Z,89.95
2018-09-24T00:37:12.792Z,89.56
2018-09-24T00:39:41.560Z,89.83
2018-09-24T00:42:10.228Z,89.84
2018-09-24T00:44:38.936Z,90.01
2018-09-24T00:47:07.603Z,90.33
2018-09-24T00:49:36.615Z,90.29
2018-09-24T00:52:05.349Z,90.39
2018-09-24T00:54:33.997Z,90.40
2018-09-24T00:57:02.652Z,90.57
2018-09-24T00:59:31.288Z,90.17
2018-09-24T01:01:59.939Z,90.77
2018-09-24T01:04:28.572Z,90.58
2018-09-24T01:06:57.240Z,90.48
2018-09-24T01:09:25.904Z,90.71
2018-09-24T01:11:54.560Z,90.66
2018-09-24T01:14:23.220Z,90.94
2018-09-24T01:16:51.921Z,90.59
2018-09-24T01:19:20.608Z,91.33
2018-09-24T01:21:49.277Z,91.40
2018-09-24T01:24:17.995Z,91.58
2018-09-24T01:26:46.636Z,91.58
2018-09-24T01:29:15.287Z,91.74
2018-09-24T01:31:43.968Z,91.62
2018-09-24T01:34:12.687Z,91.81
2018-09-24T01:36:41.332Z,91.68
2018-09-24T01:39:10.171Z,92.21
2018-09-24T01:41:38.815Z,92.17
2018-09-24T01:44:07.523Z,91.94
2018-09-24T01:46:36.232Z,92.20
2018-09-24T01:49:04.937Z,92.16
2018-09-24T01:51:36.056Z,92.08
2018-09-24T01:54:05.435Z,92.10
2018-09-24T01:56:34.270Z,92.16
2018-09-24T01:59:02.990Z,92.46
2018-09-24T02:01:32.143Z,92.47
2018-09-24T02:04:00.824Z,92.70
2018-09-24T02:06:29.515Z,92.82
2018-09-24T02:08:58.170Z,93.29
2018-09-24T02:11:26.816Z,93.69
2018-09-24T02:13:55.490Z,93.89
2018-09-24T02:16:24.209Z,93.40
2018-09-24T02:18:57.926Z,93.78
2018-09-24T02:21:26.618Z,94.15
2018-09-24T02:23:59.738Z,93.65
2018-09-24T02:26:28.483Z,93.87
2018-09-24T02:28:57.137Z,93.50
2018-09-24T02:31:25.889Z,93.83
2018-09-24T02:33:54.567Z,93.94
2018-09-24T02:36:23.262Z,94.11
2018-09-24T02:38:51.947Z,94.17
2018-09-24T02:41:20.649Z,94.23
2018-09-24T02:43:49.314Z,93.87
2018-09-24T02:46:18.021Z,94.10
2018-09-24T02:48:46.697Z,94.36
2018-09-24T02:51:15.386Z,94.25
2018-09-24T02:53:44.020Z,94.58
2018-09-24T02:56:12.707Z,94.91
2018-09-24T02:58:41.360Z,94.74
2018-09-24T03:01:10.154Z,95.07
2018-09-24T03:03:38.787Z,94.59
2018-09-24T03:06:07.469Z,95.10
2018-09-24T03:08:38.132Z,94.63
2018-09-24T03:11:06.832Z,94.83
2018-09-24T03:13:35.547Z,94.78
2018-09-24T03:16:04.254Z,94.92
2018-09-24T03:18:32.948Z,95.25
2018-09-24T03:21:01.633Z,95.13
2018-09-24T03:23:30.306Z,95.36
2018-09-24T03:25:58.978Z,95.23
2018-09-24T03:28:27.636Z,95.29
2018-09-24T03:30:56.339Z,94.91
2018-09-24T03:33:25.015Z,95.29
2018-09-24T03:35:53.690Z,94.95
2018-09-24T03:38:22.311Z,95.07
2018-09-24T03:40:50.973Z,94.94
2018-09-24T03:43:19.628Z,95.18
2018-09-24T03:45:48.316Z,94.84
2018-09-24T03:48:17.021Z,95.22
2018-09-24T03:50:45.684Z,95.65
2018-09-24T03:53:14.353Z,95.31
2018-09-24T03:55:43.020Z,95.44
2018-09-24T03:58:11.681Z,95.69
2018-09-24T04:00:40.368Z,95.51
2018-09-24T04:03:09.047Z,95.02
2018-09-24T04:05:42.727Z,95.16
2018-09-24T04:08:16.586Z,95.13
2018-09-24T04:10:50.522Z,95.77
2018-09-24T04:13:24.348Z,96.03
2018-09-24T04:15:58.026Z,95.78
2018-09-24T04:18:31.949Z,95.77
2018-09-24T04:21:05.839Z,95.74
2018-09-24T04:23:39.749Z,95.98
2018-09-24T04:26:13.574Z,96.23
2018-09-24T04:28:47.464Z,95.91
2018-09-24T04:31:21.266Z,95.92
2018-09-24T04:33:55.089Z,95.95
2018-09-24T04:36:28.776Z,95.96
2018-09-24T04:39:02.584Z,96.49
2018-09-24T04:41:36.271Z,96.42
2018-09-24T04:44:09.967Z,96.50
2018-09-24T04:46:43.704Z,96.45
2018-09-24T04:49:17.565Z,96.82
2018-09-24T04:51:51.428Z,96.41
2018-09-24T04:54:25.237Z,96.74
2018-09-24T04:56:59.144Z,96.39
2018-09-24T04:59:32.851Z,96.72
2018-09-24T05:02:06.711Z,96.69
2018-09-24T05:04:40.488Z,96.81
2018-09-24T05:07:14.352Z,96.84
2018-09-24T05:09:48.125Z,96.83
2018-09-24T05:12:21.908Z,96.70
2018-09-24T05:14:55.580Z,97.42
2018-09-24T05:17:29.311Z,97.36
2018-09-24T05:20:03.192Z,96.87
2018-09-24T05:22:37.078Z,97.35
2018-09-24T05:25:10.711Z,97.57
2018-09-24T05:27:44.473Z,97.29
2018-09-24T05:30:18.117Z,97.54
2018-09-24T05:32:51.848Z,97.39
2018-09-24T05:35:25.630Z,97.42
2018-09-24T05:37:59.391Z,97.56
2018-09-24T05:40:33.204Z,97.95
2018-09-24T05:43:06.843Z,97.79
2018-09-24T05:45:40.845Z,97.91
2018-09-24T05:48:14.511Z,98.02
2018-09-24T05:50:48.225Z,97.34
2018-09-24T05:53:22.043Z,97.42
2018-09-24T05:55:55.934Z,97.35
2018-09-24T05:58:29.774Z,97.46
2018-09-24T06:03:51.513Z,97.78
2018-09-24T06:06:25.279Z,97.43
2018-09-24T06:08:59.335Z,97.76
2018-09-24T06:11:33.164Z,97.90
2018-09-24T06:14:07.081Z,97.99
2018-09-24T06:16:40.800Z,98.09
2018-09-24T06:19:14.585Z,98.28
2018-09-24T06:21:48.370Z,98.56
2018-09-24T06:24:22.091Z,98.45
2018-09-24T06:26:56.033Z,98.67
2018-09-24T06:29:29.804Z,98.27
2018-09-24T06:32:03.481Z,98.77
2018-09-24T06:34:37.262Z,98.71
2018-09-24T06:37:11.074Z,98.83
2018-09-24T06:39:44.827Z,98.26
2018-09-24T06:42:18.673Z,98.30
2018-09-24T06:44:52.589Z,98.88
2018-09-24T06:47:26.274Z,98.33
2018-09-24T06:50:00.050Z,98.81
2018-09-24T06:52:33.987Z,98.25
2018-09-24T06:55:07.926Z,98.90
2018-09-24T06:57:41.709Z,98.99
2018-09-24T07:00:15.638Z,98.69
2018-09-24T07:02:49.423Z,99.26
2018-09-24T07:05:23.327Z,98.97
2018-09-24T07:07:57.117Z,98.99
2018-09-24T07:10:30.977Z,99.45
2018-09-24T07:13:05.028Z,99.26
2018-09-24T07:15:38.871Z,99.16
2018-09-24T07:18:12.756Z,99.42
2018-09-24T07:20:46.707Z,99.81
2018-09-24T07:23:20.495Z,99.67
2018-09-24T07:25:54.424Z,99.89
2018-09-24T07:28:28.272Z,99.66
2018-09-24T07:31:02.093Z,100.00
2018-09-24T07:33:35.858Z,100.00
2018-09-24T07:36:09.563Z,100.00
2018-09-24T07:38:43.271Z,100.00
2018-09-24T07:41:17.071Z,100.00
2018-09-24T07:43:50.782Z,100.00
2018-09-24T07:46:24.557Z,100.00
2018-09-24T07:48:58.307Z,100.00
2018-09-24T07:51:32.151Z,100.00
2018-09-24T07:54:05.900Z,100.00
2018-09-24T07:56:39.731Z,100.00
2018-09-24T07:59:13.775Z,100.00
2018-09-24T08:01:47.675Z,100.00
2018-09-24T08:04:21.423Z,100.00
2018-09-24T08:06:57.506Z,100.00
2018-09-24T08:09:31.380Z,100.00
2018-09-24T08:12:05.161Z,100.00
2018-09-24T08:14:39.047Z,100.00
2018-09-24T08:17:12.700Z,100.00
2018-09-24T08:19:46.368Z,100.00
2018-09-24T08:22:20.312Z,100.00
2018-09-24T08:24:53.977Z,100.00
2018-09-24T08:27:27.628Z,100.00
2018-09-24T08:30:01.413Z,100.00
2018-09-24T08:32:35.296Z,100.00
2018-09-24T08:35:09.126Z,100.00
2018-09-24T08:37:42.864Z,100.00
2018-09-24T08:40:16.745Z,100.00
2018-09-24T08:42:50.413Z,100.00
2018-09-24T08:45:24.356Z,100.00
2018-09-24T08:47:58.170Z,100.00
2018-09-24T08:50:31.843Z,100.00
2018-09-24T08:53:05.660Z,100.00
2018-09-24T08:55:39.582Z,100.00
2018-09-24T08:58:13.537Z,100.00
2018-09-24T09:00:47.403Z,100.00
2018-09-24T09:03:21.177Z,100.00
2018-09-24T09:05:54.865Z,100.00
2018-09-24T09:08:28.761Z,100.00
2018-09-24T09:11:02.678Z,100.00
2018-09-24T09:13:36.344Z,100.00
2018-09-24T09:16:10.157Z,100.00
2018-09-24T09:18:44.020Z,100.00
2018-09-24T09:21:17.915Z,100.00
2018-09-24T09:23:51.843Z,100.00
2018-09-24T09:26:25.576Z,100.00
2018-09-24T09:28:59.379Z,100.00
2018-09-24T09:31:33.165Z,99.92
2018-09-24T09:34:06.985Z,100.00
2018-09-24T09:36:40.905Z,100.00
2018-09-24T09:39:14.887Z,100.00
2018-09-24T09:41:48.806Z,99.76
2018-09-24T09:44:22.524Z,98.42
2018-09-24T09:46:56.360Z,97.67
2018-09-24T09:49:30.052Z,95.75
2018-09-24T09:52:03.802Z,95.31
2018-09-24T09:54:37.651Z,95.00
2018-09-24T09:57:11.552Z,94.61
2018-09-24T09:59:45.431Z,94.12
2018-09-24T10:02:19.224Z,92.89
2018-09-24T10:04:53.043Z,92.36
2018-09-24T10:07:26.871Z,91.41
2018-09-24T10:10:00.816Z,90.32
2018-09-24T10:12:34.784Z,89.08
2018-09-24T10:15:08.621Z,87.77
2018-09-24T10:17:42.420Z,88.24
2018-09-24T10:20:16.204Z,88.46
2018-09-24T10:22:50.025Z,87.69
2018-09-24T10:25:23.919Z,87.07
2018-09-24T10:27:57.714Z,86.52
2018-09-24T10:30:31.611Z,85.31
2018-09-24T10:33:05.489Z,84.98
2018-09-24T10:35:39.505Z,84.93
2018-09-24T10:38:13.436Z,84.16
2018-09-24T10:40:47.367Z,83.55
2018-09-24T10:43:21.229Z,82.26
2018-09-24T10:45:54.909Z,81.44
2018-09-24T10:48:28.803Z,79.86
2018-09-24T10:51:02.542Z,75.13
2018-09-24T10:53:36.308Z,76.29
2018-09-24T10:56:10.072Z,76.03
2018-09-24T10:58:43.893Z,76.28
2018-09-24T11:01:17.607Z,73.67
2018-09-24T11:03:51.455Z,71.49
2018-09-24T11:06:25.305Z,70.96
2018-09-24T11:08:59.158Z,71.28
2018-09-24T11:11:33.103Z,70.69
2018-09-24T11:14:07.047Z,70.97
2018-09-24T11:16:41.050Z,70.14
2018-09-24T11:19:14.724Z,67.21
2018-09-24T11:21:48.466Z,65.80
2018-09-24T11:24:22.253Z,65.25
2018-09-24T11:26:55.932Z,66.03
2018-09-24T11:29:29.829Z,65.75
2018-09-24T11:32:03.588Z,64.67
2018-09-24T11:34:37.364Z,64.14
2018-09-24T11:37:11.333Z,65.49
2018-09-24T11:39:45.131Z,65.23
2018-09-24T11:42:18.964Z,65.97
2018-09-24T11:44:52.865Z,65.78
2018-09-24T11:47:26.552Z,64.81
2018-09-24T11:50:00.367Z,64.25
2018-09-24T11:52:34.168Z,64.54
2018-09-24T11:55:07.908Z,64.46
2018-09-24T11:57:41.692Z,62.82
2018-09-24T12:00:15.584Z,61.55
2018-09-24T12:02:49.272Z,60.88
2018-09-24T12:05:23.064Z,60.33
2018-09-24T12:07:56.988Z,60.73
2018-09-24T12:10:30.884Z,60.64
2018-09-24T12:13:04.630Z,60.09
2018-09-24T12:15:38.398Z,59.71
2018-09-24T12:18:12.274Z,59.29
2018-09-24T12:20:46.089Z,59.32
2018-09-24T12:23:19.848Z,58.11
2018-09-24T12:25:53.685Z,58.22
2018-09-24T12:28:27.587Z,58.62
2018-09-24T12:31:01.378Z,59.26
2018-09-24T12:33:35.196Z,59.12
2018-09-24T12:36:09.013Z,59.07
2018-09-24T12:38:42.835Z,59.27
2018-09-24T12:41:16.621Z,59.18
2018-09-24T12:43:50.487Z,59.47
2018-09-24T12:46:24.285Z,59.64
2018-09-24T12:48:57.988Z,59.89
2018-09-24T12:51:31.893Z,59.86
2018-09-24T12:54:05.724Z,60.19
2018-09-24T12:56:39.522Z,59.85
2018-09-24T12:59:13.451Z,59.86
2018-09-24T13:01:47.252Z,58.94
2018-09-24T13:04:21.066Z,59.14
2018-09-24T13:06:54.807Z,58.48
2018-09-24T13:09:28.487Z,57.75
2018-09-24T13:12:02.275Z,57.68
2018-09-24T13:14:36.113Z,57.85
2018-09-24T13:17:09.961Z,57.87
2018-09-24T13:19:43.777Z,58.55
2018-09-24T13:22:17.664Z,57.65
2018-09-24T13:24:51.484Z,57.56
2018-09-24T13:27:25.277Z,57.20
2018-09-24T13:29:59.243Z,57.72
2018-09-24T13:32:32.909Z,57.22
2018-09-24T13:35:06.733Z,57.00
2018-09-24T13:37:40.676Z,57.36
2018-09-24T13:40:14.628Z,57.00
2018-09-24T13:42:48.408Z,56.60
2018-09-24T13:45:22.443Z,56.29
2018-09-24T13:47:56.302Z,56.62
2018-09-24T13:50:30.124Z,57.00
2018-09-24T13:53:04.008Z,56.76
2018-09-24T13:55:37.917Z,56.71
2018-09-24T13:58:12.180Z,56.28
2018-09-24T14:00:49.104Z,55.43
2018-09-24T14:03:23.150Z,54.63
2018-09-24T14:05:56.956Z,54.58
2018-09-24T14:08:30.821Z,54.14
2018-09-24T14:11:04.768Z,53.21
2018-09-24T14:13:38.608Z,52.62
2018-09-24T14:16:12.617Z,51.90
2018-09-24T14:18:46.483Z,52.07
2018-09-24T14:21:20.327Z,51.36
2018-09-24T14:23:54.221Z,50.34
2018-09-24T14:26:28.116Z,49.53
2018-09-24T14:29:01.855Z,48.93
2018-09-24T14:31:35.679Z,48.44
2018-09-24T14:34:09.702Z,47.68
2018-09-24T14:36:43.501Z,46.96
2018-09-24T14:39:17.248Z,46.86
2018-09-24T14:41:51.003Z,46.86
2018-09-24T14:44:24.834Z,46.46
2018-09-24T14:46:58.709Z,45.77
2018-09-24T14:49:32.534Z,45.64
2018-09-24T14:52:06.342Z,45.10
2018-09-24T14:54:40.269Z,45.39
2018-09-24T14:57:14.238Z,44.95
2018-09-24T14:59:48.001Z,45.42
2018-09-24T15:02:25.442Z,45.30
2018-09-24T15:04:59.272Z,45.99
2018-09-24T15:07:33.118Z,46.30
2018-09-24T15:10:07.010Z,46.00
2018-09-24T15:12:40.852Z,44.97
2018-09-24T15:15:14.659Z,44.13
2018-09-24T15:17:48.485Z,43.71
2018-09-24T15:20:22.562Z,44.01
2018-09-24T15:22:56.511Z,44.62
2018-09-24T15:25:30.445Z,45.12
2018-09-24T15:28:04.274Z,45.00
2018-09-24T15:30:38.243Z,44.87
2018-09-24T15:33:12.157Z,44.25
2018-09-24T15:35:45.969Z,44.00
2018-09-24T15:38:19.758Z,44.06
2018-09-24T15:40:53.755Z,43.87
2018-09-24T15:43:27.432Z,43.54
2018-09-24T15:46:01.394Z,43.11
2018-09-24T15:48:35.077Z,43.60
2018-09-24T15:51:08.914Z,43.61
2018-09-24T15:53:42.861Z,43.68
2018-09-24T15:56:16.632Z,43.86
2018-09-24T15:58:50.405Z,43.71
2018-09-24T16:01:24.196Z,43.28
2018-09-24T16:03:58.085Z,43.16
2018-09-24T16:06:31.851Z,43.34
2018-09-24T16:09:05.830Z,42.88
2018-09-24T16:11:39.619Z,42.35
2018-09-24T16:14:13.485Z,42.39
2018-09-24T16:16:47.290Z,42.66
2018-09-24T16:19:21.110Z,42.21
2018-09-24T16:21:54.900Z,42.34
2018-09-24T16:24:28.580Z,42.64
2018-09-24T16:27:02.517Z,42.52
2018-09-24T16:29:36.415Z,42.48
2018-09-24T16:32:10.237Z,42.81
2018-09-24T16:34:43.921Z,42.36
2018-09-24T16:37:17.669Z,42.20
2018-09-24T16:39:51.579Z,41.90
2018-09-24T16:42:25.296Z,41.92
2018-09-24T16:44:59.044Z,42.03
2018-09-24T16:47:32.891Z,42.20
2018-09-24T16:50:06.682Z,42.75
2018-09-24T16:52:40.607Z,43.04
2018-09-24T16:58:01.047Z,43.06
2018-09-24T17:00:34.951Z,43.00
2018-09-24T17:03:08.790Z,42.87
2018-09-24T17:05:42.474Z,42.73
2018-09-24T17:08:16.387Z,43.20
2018-09-24T17:10:50.196Z,43.47
2018-09-24T17:13:23.940Z,44.02
2018-09-24T17:15:57.748Z,44.56
2018-09-24T17:18:31.640Z,44.76
2018-09-24T17:21:05.285Z,45.80
2018-09-24T17:23:39.095Z,46.53
2018-09-24T17:26:12.945Z,46.87
2018-09-24T17:28:46.932Z,47.72
2018-09-24T17:31:20.913Z,48.45
2018-09-24T17:33:54.668Z,49.02
2018-09-24T17:36:28.759Z,49.42
2018-09-24T17:39:02.643Z,49.98
2018-09-24T17:41:36.452Z,50.65
2018-09-24T17:44:10.324Z,51.46
2018-09-24T17:46:44.256Z,52.28
2018-09-24T17:49:18.108Z,52.71
2018-09-24T17:51:51.890Z,53.10
2018-09-24T17:54:25.652Z,53.65
2018-09-24T17:56:59.670Z,54.44
2018-09-24T17:59:33.509Z,55.18
2018-09-24T18:02:07.336Z,56.18
2018-09-24T18:04:41.172Z,56.86
2018-09-24T18:07:14.941Z,57.71
2018-09-24T18:09:48.907Z,58.33
2018-09-24T18:12:22.551Z,59.07
2018-09-24T18:14:56.458Z,59.75
2018-09-24T18:17:30.282Z,60.37
2018-09-24T18:20:04.213Z,61.02
2018-09-24T18:22:38.042Z,61.52
2018-09-24T18:25:12.146Z,62.28
2018-09-24T18:27:46.006Z,63.40
2018-09-24T18:30:19.663Z,64.03
2018-09-24T18:32:53.536Z,64.56
2018-09-24T18:35:27.368Z,64.99
2018-09-24T18:38:01.120Z,65.93
2018-09-24T18:40:35.006Z,66.42
2018-09-24T18:43:08.797Z,66.79
2018-09-24T18:45:42.631Z,67.41
2018-09-24T18:48:16.438Z,68.19
2018-09-24T18:50:50.232Z,68.08
2018-09-24T18:53:24.030Z,68.78
2018-09-24T18:55:57.892Z,69.07
2018-09-24T18:58:31.903Z,68.91
2018-09-24T19:01:05.625Z,69.42
2018-09-24T19:03:39.442Z,69.95
2018-09-24T19:06:13.478Z,70.85
2018-09-24T19:08:47.471Z,71.22
2018-09-24T19:11:27.793Z,71.05
2018-09-24T19:13:55.398Z,71.18
2018-09-24T19:16:29.320Z,71.27
2018-09-24T19:19:03.188Z,71.88
2018-09-24T19:21:37.111Z,71.80
2018-09-24T19:24:10.927Z,72.51
2018-09-24T19:26:44.828Z,72.39
2018-09-24T19:29:18.587Z,72.97
2018-09-24T19:31:52.520Z,73.07
2018-09-24T19:34:26.332Z,73.19
2018-09-24T19:37:00.244Z,73.94
2018-09-24T19:39:34.016Z,74.14
2018-09-24T19:42:07.828Z,74.30
2018-09-24T19:44:41.627Z,74.64
2018-09-24T19:47:15.593Z,74.82
2018-09-24T19:49:49.500Z,74.84
2018-09-24T19:52:23.307Z,75.50
2018-09-24T19:54:57.273Z,75.42
2018-09-24T19:57:31.056Z,75.67
2018-09-24T20:00:04.942Z,75.74
2018-09-24T20:02:38.846Z,76.13
2018-09-24T20:05:12.735Z,76.34
2018-09-24T20:07:46.724Z,76.43
2018-09-24T20:10:20.663Z,76.34
2018-09-24T20:12:54.577Z,76.43
2018-09-24T20:15:28.434Z,76.92
2018-09-24T20:18:02.513Z,76.51
2018-09-24T20:20:36.329Z,76.72
2018-09-24T20:23:10.156Z,77.12
2018-09-24T20:25:44.040Z,76.92
2018-09-24T20:28:17.873Z,76.98
2018-09-24T20:30:51.694Z,77.58
2018-09-24T20:33:26.066Z,77.59
2018-09-24T20:36:00.108Z,78.11
2018-09-24T20:38:34.000Z,78.05
2018-09-24T20:41:07.724Z,77.97
2018-09-24T20:43:41.571Z,78.51
2018-09-24T20:46:15.941Z,78.90
2018-09-24T20:48:49.776Z,78.84
2018-09-24T20:51:23.582Z,79.29
2018-09-24T20:53:57.327Z,78.96
2018-09-24T20:56:31.165Z,79.38
2018-09-24T20:59:05.076Z,79.55
2018-09-24T21:01:38.816Z,79.35
2018-09-24T21:04:12.540Z,79.87
2018-09-24T21:06:46.241Z,79.78
2018-09-24T21:09:20.050Z,79.68
2018-09-24T21:11:53.834Z,79.75
2018-09-24T21:14:27.675Z,80.11
2018-09-24T21:17:01.444Z,80.51
2018-09-24T21:22:21.380Z,80.63
2018-09-24T21:24:55.151Z,80.71
2018-09-24T21:27:29.060Z,81.08
2018-09-24T21:30:02.717Z,80.91
2018-09-24T21:32:36.355Z,80.93
2018-09-24T21:35:10.325Z,80.67
2018-09-24T21:37:51.141Z,80.88
2018-09-24T21:40:24.791Z,81.00
2018-09-24T21:42:58.684Z,80.83
2018-09-24T21:45:32.495Z,81.33
2018-09-24T21:48:06.227Z,81.24
2018-09-24T21:50:40.088Z,80.95
2018-09-24T21:53:13.747Z,81.32
2018-09-24T21:55:47.474Z,80.87
2018-09-24T21:58:21.348Z,81.34
2018-09-24T22:00:55.103Z,81.28
2018-09-24T22:03:29.006Z,81.59
2018-09-24T22:06:02.799Z,81.31
2018-09-24T22:08:36.627Z,81.56
2018-09-24T22:11:10.357Z,81.26
2018-09-24T22:13:44.164Z,81.99
2018-09-24T22:16:17.895Z,81.67
2018-09-24T22:18:51.824Z,81.74
2018-09-24T22:21:25.508Z,82.15
2018-09-24T22:23:59.366Z,81.86
2018-09-24T22:26:33.208Z,81.99
2018-09-24T22:29:06.912Z,82.19
2018-09-24T22:31:40.678Z,82.65
2018-09-24T22:34:14.407Z,82.55
2018-09-24T22:36:48.194Z,82.47
2018-09-24T22:39:21.949Z,82.56
2018-09-24T22:41:55.655Z,83.12
2018-09-24T22:44:29.443Z,82.78
2018-09-24T22:47:03.209Z,82.61
2018-09-24T22:49:37.017Z,82.88
2018-09-24T22:52:10.792Z,82.92
2018-09-24T22:54:44.652Z,83.22
2018-09-24T22:57:18.340Z,83.72
2018-09-24T22:59:52.108Z,83.16
2018-09-24T23:02:25.758Z,83.24
2018-09-24T23:04:59.564Z,83.15
2018-09-24T23:07:33.318Z,83.32
2018-09-24T23:10:07.243Z,83.58
2018-09-24T23:12:40.995Z,83.48
2018-09-24T23:15:14.610Z,83.60
2018-09-24T23:17:48.416Z,83.33
2018-09-24T23:20:22.301Z,83.28
2018-09-24T23:22:56.115Z,83.46
2018-09-24T23:25:29.936Z,83.46
2018-09-24T23:28:03.697Z,83.54
2018-09-24T23:30:37.442Z,83.43
2018-09-24T23:33:11.364Z,83.72
2018-09-24T23:35:45.036Z,83.97
2018-09-24T23:38:18.718Z,83.95
2018-09-24T23:40:52.500Z,83.65
2018-09-24T23:43:26.336Z,84.00
2018-09-24T23:46:00.208Z,84.05
2018-09-24T23:48:33.876Z,83.72
2018-09-24T23:51:07.679Z,83.52
2018-09-24T23:53:41.472Z,83.97
2018-09-24T23:56:15.300Z,84.81
2018-09-24T23:58:49.086Z,84.54
